Latest Weather Observations for Newdegate

IDW60801

Issued at 5:05 pm WST Saturday 1 November 2014 (issued every 30 minutes, with the page automatically refreshed every 10 minutes)

About weather observations | Map of weather stations | Latest weather observations for WA | Other Formats
Station Details ID: 010692 Name: NEWDEGATE RESEARCH STATION Lat: -33.11 Lon: 118.84 Height: 320.0 m
Data from the previous 72 hours. | See also: Recent months at Newdegate
Date/Time
WST
Temp
°C
App
Temp
°C
Dew
Point
Rel
Hum
%
Delta-T
°C
Wind Press
QNH
hPa
Press
MSL
hPa
Rain
since 9 am
mm
Dir
 
Spd
km/h
Gust
km/h
Spd
kts
Gust
kts
01/05:00pm 25.8 21.7 -2.8 15 12.8 N 9 15 5 8 1015.9 1014.9 0.0
01/04:30pm 26.1 21.9 -3.5 14 13.1 NNE 9 15 5 8 1016.0 1015.1 0.0
01/04:00pm 26.8 22.8 -2.0 15 13.1 N 9 19 5 10 1016.2 1015.3 0.0
01/03:30pm 26.2 22.1 -3.4 14 13.1 N 9 19 5 10 1016.1 1015.2 0.0
01/03:00pm 26.3 21.1 -2.4 15 13.0 NNE 15 24 8 13 1016.5 1015.6 0.0
01/02:30pm 25.8 21.0 -2.8 15 12.8 NNE 13 24 7 13 1016.7 1015.8 0.0
01/02:00pm 25.2 20.4 -2.4 16 12.3 ENE 13 20 7 11 1017.3 1016.4 0.0
01/01:30pm 25.2 20.5 -1.6 17 12.2 N 13 20 7 11 1018.0 1017.1 0.0
01/01:00pm 23.9 19.2 -1.8 18 11.5 NE 13 20 7 11 1018.5 1017.6 0.0
01/12:30pm 23.4 18.4 -1.5 19 11.2 NE 15 30 8 16 1018.5 1017.6 0.0
01/12:00pm 22.6 18.6 -2.2 19 10.9 NNE 9 30 5 16 1019.3 1018.4 0.0
01/11:30am 23.1 18.6 -0.4 21 10.7 NNE 13 26 7 14 1019.7 1018.8 0.0
01/11:00am 21.8 16.9 -0.2 23 10.0 NNE 15 24 8 13 1020.1 1019.2 0.0
01/10:30am 20.6 15.4 0.4 26 9.2 ENE 17 26 9 14 1020.5 1019.6 0.0
01/10:00am 19.6 14.1 0.6 28 8.6 NE 19 28 10 15 1021.1 1020.2 0.0
01/09:30am 18.6 13.2 2.4 34 7.6 NE 20 28 11 15 1021.4 1020.6 0.0
01/09:00am 16.6 11.4 2.6 39 6.4 NNE 19 28 10 15 1021.6 1020.8 0.0
01/08:30am 15.8 10.3 3.9 45 5.6 NE 22 32 12 17 1021.7 1020.9 0.0
01/08:00am 14.7 9.4 5.0 52 4.6 ENE 22 35 12 19 1021.9 1021.1 0.0
01/07:30am 13.1 8.3 5.8 61 3.5 ENE 20 32 11 17 1022.0 1021.7 0.0
01/07:00am 11.6 7.0 6.5 71 2.4 NE 20 26 11 14 1021.7 1021.3 0.0
01/06:30am 9.3 6.4 6.6 83 1.3 ENE 11 17 6 9 1021.6 1021.2 0.0
01/06:00am 7.4 5.1 5.9 90 0.7 E 7 9 4 5 1021.5 1021.1 0.0
01/05:30am 4.8 2.0 3.1 89 0.7 E 7 7 4 4 1021.0 1020.6 0.0
01/05:00am 4.7 2.4 2.9 88 0.7 ESE 4 6 2 3 1021.0 1020.6 0.0
01/04:30am 4.7 1.9 2.9 88 0.7 ESE 7 9 4 5 1020.6 1020.2 0.0
01/04:00am 5.1 2.3 3.1 87 0.8 ESE 7 9 4 5 1020.5 1020.1 0.0
01/03:30am 5.5 2.8 3.5 87 0.9 ESE 7 7 4 4 1020.5 1020.1 0.0
01/03:00am 5.4 2.8 3.3 86 0.9 E 6 7 3 4 1020.3 1019.9 0.0
01/02:30am 6.3 3.8 4.0 85 1.0 E 6 7 3 4 1020.2 1019.8 0.0
01/02:00am 6.8 4.2 4.1 83 1.2 E 7 9 4 5 1020.2 1019.8 0.0
01/01:30am 7.6 5.0 4.4 80 1.4 E 7 9 4 5 1020.0 1019.6 0.0
01/01:00am 8.6 5.4 5.2 79 1.5 ESE 11 15 6 8 1019.9 1019.5 0.0
01/12:30am 9.3 5.9 5.7 78 1.7 E 13 19 7 10 1019.9 1019.5 0.0
01/12:00am 9.6 6.2 6.0 78 1.7 E 13 19 7 10 1020.2 1019.8 0.0
 
Date/Time
WST
Temp
°C
App
Temp
°C
Dew
Point
Rel
Hum
%
Delta-T
°C
Wind Press
QNH
hPa
Press
MSL
hPa
Rain
since 9 am
mm
Dir
 
Spd
km/h
Gust
km/h
Spd
kts
Gust
kts
31/11:30pm 10.0 6.3 6.3 78 1.8 ESE 15 22 8 12 1020.4 1020.0 0.0
31/11:00pm 10.0 6.7 6.5 79 1.7 ESE 13 20 7 11 1020.6 1020.2 0.0
31/10:30pm 10.3 7.0 6.6 78 1.8 ESE 13 20 7 11 1020.7 1020.3 0.0
31/10:00pm 10.6 7.7 6.7 77 1.9 ESE 11 19 6 10 1021.1 1020.7 0.0
31/09:30pm 11.3 7.4 7.0 75 2.1 ESE 17 22 9 12 1020.9 1020.5 0.0
31/09:00pm 11.7 7.7 6.6 71 2.5 ESE 17 24 9 13 1020.7 1020.3 0.0
31/08:30pm 12.3 8.3 6.6 68 2.8 ESE 17 26 9 14 1020.5 1020.1 0.0
31/08:00pm 13.3 8.3 6.6 64 3.3 SE 22 30 12 16 1020.1 1019.7 0.0
31/07:30pm 14.2 10.2 6.6 60 3.7 SE 17 22 9 12 1019.5 1019.1 0.0
31/07:00pm 15.0 10.4 6.3 56 4.3 SE 20 28 11 15 1019.1 1018.6 0.0
31/06:30pm 16.4 10.9 5.7 49 5.2 SE 24 37 13 20 1018.6 1018.2 0.0
31/06:00pm 18.3 12.8 3.8 38 6.9 SE 22 32 12 17 1017.8 1017.4 0.0
31/05:30pm 19.7 14.2 3.8 35 7.7 SE 22 30 12 16 1017.5 1017.1 0.0
31/05:00pm 21.0 16.3 3.2 31 8.6 SSE 17 26 9 14 1017.0 1016.6 0.0
31/04:30pm 21.8 17.9 3.5 30 8.9 SE 13 22 7 12 1016.7 1016.3 0.0
31/04:00pm 22.1 17.0 3.3 29 9.1 SSE 19 26 10 14 1016.4 1015.9 0.0
31/03:30pm 22.1 18.2 3.3 29 9.2 SSE 13 24 7 13 1016.1 1015.6 0.0
31/03:00pm 22.7 19.3 3.8 29 9.3 SSE 11 24 6 13 1015.9 1015.4 0.0
31/02:30pm 22.2 17.4 2.8 28 9.4 ESE 17 24 9 13 1015.9 1015.4 0.0
31/02:00pm 22.0 19.1 2.7 28 9.3 S 7 15 4 8 1016.2 1015.7 0.0
31/01:30pm 21.8 16.7 3.0 29 9.1 SSE 19 28 10 15 1016.2 1015.7 0.0
31/01:00pm 20.9 17.0 3.2 31 8.5 SSE 13 30 7 16 1016.3 1015.8 0.0
31/12:30pm 21.1 15.9 3.8 32 8.4 SSE 20 32 11 17 1016.3 1015.8 0.0
31/12:00pm 20.7 16.8 3.4 32 8.3 ESE 13 20 7 11 1016.2 1015.7 0.0
31/11:30am 20.5 15.3 2.3 30 8.6 SE 19 30 10 16 1016.5 1016.0 0.0
31/11:00am 20.0 15.5 2.4 31 8.3 SSE 15 22 8 12 1016.5 1016.0 0.0
31/10:30am 19.5 14.3 2.4 32 8.0 SSE 19 26 10 14 1016.8 1016.4 0.0
31/10:00am 18.7 13.8 1.7 32 7.8 S 17 26 9 14 1016.8 1016.4 0.0
31/09:30am 18.0 13.1 3.9 39 6.7 S 19 30 10 16 1016.7 1016.3 0.0
31/09:00am 17.0 11.2 4.3 43 6.1 S 24 32 13 17 1016.5 1016.0 -
31/08:30am 15.4 10.8 6.7 56 4.3 SW 20 26 11 14 1016.1 1015.6 -
31/08:00am 15.3 11.0 7.8 61 3.8 S 20 26 11 14 1016.0 1015.5 -
31/07:30am 14.5 10.7 9.1 70 2.8 S 19 28 10 15 1015.5 1015.1 -
31/07:00am 12.3 9.0 9.5 83 1.4 SSW 17 24 9 13 1015.3 1014.9 -
31/06:30am 12.4 8.6 9.8 84 1.3 SSW 20 28 11 15 1015.1 1014.7 -
31/06:00am 12.1 8.4 10.0 87 1.1 S 20 30 11 16 1014.4 1014.0 -
31/05:30am 12.4 8.4 10.5 88 1.0 SSW 22 35 12 19 1013.9 1013.4 -
31/05:00am 12.8 8.8 10.5 86 1.2 SSW 22 30 12 16 1013.3 1012.8 -
31/04:30am 13.8 11.0 10.0 78 2.0 WSW 15 22 8 12 1012.8 1012.3 -
31/04:00am 12.6 11.2 9.4 81 1.7 WNW 7 9 4 5 1012.4 1011.9 -
31/03:30am 12.0 10.6 8.8 81 1.6 NW 6 7 3 4 1011.9 1011.5 -
31/03:00am 11.2 9.4 8.1 81 1.5 WNW 7 9 4 5 1012.0 1011.6 0.0
31/02:30am 10.9 9.2 7.6 80 1.6 WNW 6 7 3 4 1012.0 1011.6 -
31/02:00am 10.8 9.5 7.5 80 1.6 WNW 4 7 2 4 1011.9 1011.5 -
31/01:30am 11.0 9.2 7.1 77 1.9 W 6 7 3 4 1011.7 1011.3 -
31/01:00am 11.7 9.8 6.8 72 2.4 W 6 9 3 5 1011.8 1011.4 -
31/12:30am 13.4 9.9 7.4 67 3.0 W 15 24 8 13 1012.2 1011.8 -
31/12:00am 13.8 10.8 7.6 66 3.1 WSW 13 19 7 10 1012.4 1011.9 -
 
Date/Time
WST
Temp
°C
App
Temp
°C
Dew
Point
Rel
Hum
%
Delta-T
°C
Wind Press
QNH
hPa
Press
MSL
hPa
Rain
since 9 am
mm
Dir
 
Spd
km/h
Gust
km/h
Spd
kts
Gust
kts
30/11:30pm 13.4 10.7 7.4 67 3.0 WSW 11 17 6 9 1012.5 1012.0 -
30/11:00pm 14.1 10.3 7.6 65 3.3 WSW 17 26 9 14 1012.7 1012.2 -
30/10:30pm 14.9 10.8 7.9 63 3.6 WSW 19 33 10 18 1012.8 1012.3 -
30/10:00pm 14.8 10.7 8.5 66 3.2 WSW 20 30 11 16 1012.8 1012.3 -
30/09:30pm 15.4 12.3 8.9 65 3.4 WSW 15 22 8 12 1012.5 1012.0 -
30/09:00pm 17.0 13.2 8.9 59 4.3 WSW 19 28 10 15 1012.2 1011.8 0.0
30/08:30pm 17.9 15.9 8.5 54 4.9 SSW 9 15 5 8 1011.8 1011.4 -
30/08:00pm 20.0 15.5 8.7 48 6.0 SSW 22 33 12 18 1011.2 1010.7 -
30/07:30pm 20.8 16.7 10.0 50 5.9 WSW 22 33 12 18 1010.3 1009.8 -
30/07:00pm 22.1 17.1 10.9 49 6.3 WSW 28 37 15 20 1009.6 1009.1 -
30/06:30pm 23.9 18.6 11.3 45 7.2 WSW 30 41 16 22 1008.8 1008.4 -
30/06:00pm 25.4 21.2 8.4 34 9.3 WSW 20 33 11 18 1008.3 1007.8 -
30/05:30pm 26.5 21.8 6.0 27 10.8 WSW 20 30 11 16 1007.9 1007.4 -
30/05:00pm 28.4 24.2 7.6 27 11.4 WSW 19 30 10 16 1007.7 1007.2 -
30/04:30pm 29.2 25.6 8.3 27 11.6 W 17 26 9 14 1007.6 1007.1 -
30/04:00pm 28.3 24.3 8.1 28 11.2 W 19 28 10 15 1007.8 1007.3 -
30/03:30pm 29.8 25.6 8.2 26 12.0 W 20 35 11 19 1007.8 1007.3 -
30/03:00pm 29.0 25.5 10.2 31 10.8 W 19 35 10 19 1008.0 1007.5 -
30/02:30pm 28.6 25.5 10.3 32 10.5 NW 17 24 9 13 1008.3 1007.8 -
30/02:00pm 28.6 25.3 11.6 34 10.0 W 20 32 11 17 1008.8 1008.4 -
30/01:30pm 27.8 24.5 10.9 35 9.7 NW 19 22 10 12 1009.4 1008.9 -
30/01:00pm 27.5 24.8 10.2 34 9.8 WNW 15 20 8 11 1009.7 1009.2 -
30/12:30pm 27.8 25.8 11.4 36 9.5 WSW 13 20 7 11 1009.9 1009.4 -
30/12:00pm 26.4 25.0 10.9 38 8.9 W 9 19 5 10 1010.1 1009.6 -
30/11:30am 25.3 23.6 10.0 38 8.6 SW 9 17 5 9 1010.7 1010.2 -
30/11:00am 24.5 23.5 11.1 43 7.6 SSW 7 15 4 8 1011.0 1010.5 -
30/10:30am 23.3 22.5 11.0 46 6.9 W 6 11 3 6 1011.5 1011.1 -
30/10:00am 22.2 21.4 11.0 49 6.3 NW 6 9 3 5 1012.1 1011.7 -
30/08:00am 15.4 12.2 11.4 77 2.2 SSW 19 22 10 12 1013.7 1013.2 0.0
30/07:30am 14.9 13.7 11.5 80 1.9 S 9 13 5 7 1013.8 1013.3 0.0
30/07:00am 14.1 12.0 11.3 83 1.5 ENE 13 17 7 9 1013.4 1012.9 0.0
30/06:30am 13.7 11.7 11.4 86 1.2 ENE 13 17 7 9 1013.2 1012.7 0.0
30/06:00am 13.5 11.4 11.2 86 1.2 E 13 17 7 9 1013.4 1012.9 0.0
30/05:30am 13.4 12.1 11.3 87 1.1 E 9 15 5 8 1013.5 1013.0 0.0
30/05:00am 13.3 10.8 11.0 86 1.2 SE 15 20 8 11 1013.0 1012.5 0.0
30/04:30am 13.3 11.2 11.0 86 1.2 SE 13 17 7 9 1012.6 1012.1 0.0
30/04:00am 13.6 11.5 11.3 86 1.2 SSE 13 17 7 9 1012.6 1012.1 0.0
30/03:30am 13.8 12.2 11.5 86 1.2 SE 11 15 6 8 1012.9 1012.4 0.0
30/03:00am 13.8 12.6 11.5 86 1.2 E 9 13 5 7 1013.6 1013.1 0.0
30/02:30am 13.8 12.2 11.5 86 1.2 E 11 13 6 7 1013.7 1013.2 0.0
30/02:00am 13.9 12.3 11.6 86 1.2 ENE 11 17 6 9 1014.0 1013.6 0.0
30/01:30am 13.9 11.9 11.6 86 1.2 E 13 19 7 10 1013.6 1013.1 0.0
30/01:00am 13.9 11.6 11.8 87 1.1 E 15 19 8 10 1013.7 1013.2 0.0
30/12:30am 14.0 11.6 11.5 85 1.4 E 15 19 8 10 1014.0 1013.6 0.0
30/12:00am 14.0 10.9 11.5 85 1.4 ESE 19 22 10 12 1013.7 1013.2 0.0
 
Date/Time
WST
Temp
°C
App
Temp
°C
Dew
Point
Rel
Hum
%
Delta-T
°C
Wind Press
QNH
hPa
Press
MSL
hPa
Rain
since 9 am
mm
Dir
 
Spd
km/h
Gust
km/h
Spd
kts
Gust
kts
29/11:30pm 14.1 11.7 11.4 84 1.5 ESE 15 20 8 11 1013.9 1013.4 0.0
29/11:00pm 14.2 11.0 11.4 83 1.5 ESE 19 28 10 15 1014.3 1013.9 0.0
29/10:30pm 14.2 11.4 11.4 83 1.5 SE 17 24 9 13 1014.6 1014.2 0.0
29/10:00pm 14.3 11.5 11.5 83 1.5 SE 17 26 9 14 1014.3 1013.9 0.0
29/09:30pm 14.4 11.0 11.4 82 1.6 SE 20 28 11 15 1014.1 1013.7 0.0
29/09:00pm 14.3 11.5 11.5 83 1.5 SE 17 22 9 12 1014.4 1014.0 0.0
29/08:30pm 14.0 12.2 11.0 82 1.6 ESE 11 17 6 9 1014.4 1014.0 0.0
29/08:00pm 14.5 12.4 11.1 80 1.8 ESE 13 20 7 11 1014.3 1013.9 0.0
29/07:30pm 15.3 13.3 11.5 78 2.1 ESE 13 19 7 10 1014.0 1013.6 0.0
29/07:00pm 15.9 13.8 11.3 74 2.5 ESE 13 20 7 11 1013.8 1013.3 0.0
29/06:30pm 16.9 14.6 11.6 71 2.9 ESE 15 20 8 11 1013.9 1013.4 0.0
29/06:00pm 17.9 15.3 11.9 68 3.3 ESE 17 28 9 15 1013.7 1013.2 0.0
29/05:30pm 18.5 15.0 12.3 67 3.5 ESE 22 28 12 15 1013.1 1012.6 0.0

Other Formats:

Comma delimited format used in spreadsheet applications
http://www.bom.gov.au/fwo/IDW60801/IDW60801.94628.axf

JavaScript Object Notation format (JSON) in row-major order
http://www.bom.gov.au/fwo/IDW60801/IDW60801.94628.json